Pulteney, New York
Current Conditions -  °F | °C
As of 10:53 PM on Saturday 20 Dec 2014 (Local Time) from KPEO Reporting Station
Overcast Overcast  
Wind Chill: 28°   Ceiling: 2300
Heat Index: 28°   Visibility: 10mi
Dew Point: 20°   Wind: 3mph
Humidity: 72%   Direction: 270°W
Pressure: 30.26"   Gusts: NA
Location:  42.52°N, 77.17°W
Report Text: KPEO 210353Z AUTO 27003KT 10SM OVC023 M02/M07 A3026 RMK AO2 SLP261 T10221067
Loading
Personal Weather Stations






























Interactive Weather Map New forecast layout! Learn more

10-Day Weather Forecast

Advertisements
Track Severe Weather on mobile